Estación Meteorológica Peña el Pijo (Robertgarden) [ 12/17/17 01:25:50 CET ]

Fecha Hora Presion(HPa) Temp (°C) Humedad % Rocio (°C) Viento ( m/s) Direccion Lluvia 1Hora(mm) Lluvia 24H(mm) LLuvia Total(mm)
2017-Oct-03 01:01:28 1016.400 11.6 77 7.7         1457.65
2017-Oct-03 02:01:47 1016.400 10.4 79 6.9         1457.65
2017-Oct-03 03:05:10 1016.000 10.3 81 7.2         1457.65
2017-Oct-03 04:01:41 1015.600 10.2 82 7.2         1457.65
2017-Oct-03 05:01:44 1015.300 9.9 83 7.1         1457.65
2017-Oct-03 06:01:33 1015.100 9.3 84 6.7         1457.65
2017-Oct-03 07:01:39 1014.800 9.2 84 6.6         1457.65
2017-Oct-03 08:01:42 1015.400 8.4 86 6.2         1457.65
2017-Oct-03 09:01:38 1015.500 8.5 86 6.3         1457.65
2017-Oct-03 10:01:41 1015.600 16.1 87 13.9         1457.65
2017-Oct-03 11:01:37 1015.600 22.9 60 14.6         1457.65
2017-Oct-03 12:01:48 1015.500 25.9 50 14.7         1457.65
2017-Oct-03 13:01:27 1015.100 27.9 42 13.8         1457.65
2017-Oct-03 14:01:39 1014.600 27.5 40 12.8         1457.65
2017-Oct-03 15:01:34 1013.600 28.1 40 12.7         1457.65
2017-Oct-03 16:01:19 1013.100 28.9 36 12.2 2.3 S     1457.65
2017-Oct-03 17:01:23 1012.700 29.1 32 10.7         1457.65
2017-Oct-03 18:01:27 1012.400 28.2 35 11.2         1457.65
2017-Oct-03 19:01:45 1013.200 24.6 44 11.5 0.6 SSW     1457.65
2017-Oct-03 20:02:00 1013.600 21.3 53 11.3         1457.65
2017-Oct-03 21:01:50 1014.100 18.8 60 10.9         1457.65
2017-Oct-03 22:01:42 1014.500 16.5 65 9.9         1457.65
2017-Oct-03 23:01:57 1015.100 14.9 70 9.5         1457.65

Temperatura Máxima:29°    Temperatura Mínima:
Presión Máxima:1016.400 Hpa    Presión Mínima:1012.400 Hpa


Volver